sensor_id;sensor_type;location;lat;lon;timestamp;P1;P2;P0
69224;PMS1003;56333;51.306;17.056;2023-03-01T00:01:05;68.50;37.50;
69224;PMS1003;56333;51.306;17.056;2023-03-01T00:02:35;69.60;38.60;
69224;PMS1003;56333;51.306;17.056;2023-03-01T00:04:05;64.50;35.50;
69224;PMS1003;56333;51.306;17.056;2023-03-01T00:05:34;64.10;34.40;
69224;PMS1003;56333;51.306;17.056;2023-03-01T00:07:03;62.20;34.10;
69224;PMS1003;56333;51.306;17.056;2023-03-01T00:08:32;60.40;33.90;
69224;PMS1003;56333;51.306;17.056;2023-03-01T00:10:02;60.60;33.80;
69224;PMS1003;56333;51.306;17.056;2023-03-01T00:11:33;63.80;34.00;
69224;PMS1003;56333;51.306;17.056;2023-03-01T00:13:03;61.50;33.00;
69224;PMS1003;56333;51.306;17.056;2023-03-01T00:14:32;66.20;34.60;
69224;PMS1003;56333;51.306;17.056;2023-03-01T00:16:03;61.40;32.90;
69224;PMS1003;56333;51.306;17.056;2023-03-01T00:17:38;58.00;31.50;
69224;PMS1003;56333;51.306;17.056;2023-03-01T00:19:09;58.20;30.70;
69224;PMS1003;56333;51.306;17.056;2023-03-01T00:20:40;57.20;31.10;
69224;PMS1003;56333;51.306;17.056;2023-03-01T00:22:09;54.70;30.50;
69224;PMS1003;56333;51.306;17.056;2023-03-01T00:23:39;56.80;31.00;
69224;PMS1003;56333;51.306;17.056;2023-03-01T00:25:08;54.00;30.50;
69224;PMS1003;56333;51.306;17.056;2023-03-01T00:26:38;57.40;31.50;
69224;PMS1003;56333;51.306;17.056;2023-03-01T00:28:07;57.20;31.30;
69224;PMS1003;56333;51.306;17.056;2023-03-01T00:29:36;56.90;31.00;
69224;PMS1003;56333;51.306;17.056;2023-03-01T00:31:09;57.60;31.50;
69224;PMS1003;56333;51.306;17.056;2023-03-01T00:32:39;59.60;32.50;
69224;PMS1003;56333;51.306;17.056;2023-03-01T00:34:09;57.50;32.10;
69224;PMS1003;56333;51.306;17.056;2023-03-01T00:35:38;57.80;32.00;
69224;PMS1003;56333;51.306;17.056;2023-03-01T00:37:08;58.30;31.80;
69224;PMS1003;56333;51.306;17.056;2023-03-01T00:38:40;56.60;32.10;
69224;PMS1003;56333;51.306;17.056;2023-03-01T00:40:15;58.00;32.70;
69224;PMS1003;56333;51.306;17.056;2023-03-01T00:41:45;61.70;35.30;
69224;PMS1003;56333;51.306;17.056;2023-03-01T00:43:13;70.20;39.60;
69224;PMS1003;56333;51.306;17.056;2023-03-01T00:44:43;74.20;43.20;
69224;PMS1003;56333;51.306;17.056;2023-03-01T00:46:14;68.60;39.50;
69224;PMS1003;56333;51.306;17.056;2023-03-01T00:47:44;66.80;38.10;
69224;PMS1003;56333;51.306;17.056;2023-03-01T00:49:13;63.60;37.00;
69224;PMS1003;56333;51.306;17.056;2023-03-01T00:50:42;53.60;29.50;
69224;PMS1003;56333;51.306;17.056;2023-03-01T00:52:12;49.90;28.40;
69224;PMS1003;56333;51.306;17.056;2023-03-01T00:53:41;50.80;28.90;
69224;PMS1003;56333;51.306;17.056;2023-03-01T00:55:12;50.70;27.30;
69224;PMS1003;56333;51.306;17.056;2023-03-01T00:56:41;49.30;28.40;
69224;PMS1003;56333;51.306;17.056;2023-03-01T00:58:10;53.00;29.60;
69224;PMS1003;56333;51.306;17.056;2023-03-01T00:59:40;51.40;28.80;
69224;PMS1003;56333;51.306;17.056;2023-03-01T01:01:13;53.90;29.30;
69224;PMS1003;56333;51.306;17.056;2023-03-01T01:02:44;54.60;30.10;
69224;PMS1003;56333;51.306;17.056;2023-03-01T01:04:14;51.80;29.80;
69224;PMS1003;56333;51.306;17.056;2023-03-01T01:05:43;53.00;30.00;
69224;PMS1003;56333;51.306;17.056;2023-03-01T01:07:13;50.70;28.50;
69224;PMS1003;56333;51.306;17.056;2023-03-01T01:08:42;53.50;29.50;
69224;PMS1003;56333;51.306;17.056;2023-03-01T01:10:13;52.00;28.60;
69224;PMS1003;56333;51.306;17.056;2023-03-01T01:11:43;49.00;28.30;
69224;PMS1003;56333;51.306;17.056;2023-03-01T01:13:13;51.90;28.50;
69224;PMS1003;56333;51.306;17.056;2023-03-01T01:14:42;52.70;28.20;
69224;PMS1003;56333;51.306;17.056;2023-03-01T01:16:12;48.90;27.80;
69224;PMS1003;56333;51.306;17.056;2023-03-01T01:17:42;51.10;27.80;
69224;PMS1003;56333;51.306;17.056;2023-03-01T01:19:12;48.10;27.00;
69224;PMS1003;56333;51.306;17.056;2023-03-01T01:20:41;47.10;25.50;
69224;PMS1003;56333;51.306;17.056;2023-03-01T01:22:10;44.40;24.80;
69224;PMS1003;56333;51.306;17.056;2023-03-01T01:23:40;46.40;25.10;
69224;PMS1003;56333;51.306;17.056;2023-03-01T01:25:11;43.60;24.80;
69224;PMS1003;56333;51.306;17.056;2023-03-01T01:26:40;45.90;24.20;
69224;PMS1003;56333;51.306;17.056;2023-03-01T01:28:09;45.10;25.10;
69224;PMS1003;56333;51.306;17.056;2023-03-01T01:29:38;45.20;25.20;
69224;PMS1003;56333;51.306;17.056;2023-03-01T01:31:08;46.00;25.70;
69224;PMS1003;56333;51.306;17.056;2023-03-01T01:32:37;42.30;25.10;
69224;PMS1003;56333;51.306;17.056;2023-03-01T01:34:08;45.10;26.10;
69224;PMS1003;56333;51.306;17.056;2023-03-01T01:35:47;47.30;26.50;
69224;PMS1003;56333;51.306;17.056;2023-03-01T01:37:17;45.50;25.80;
69224;PMS1003;56333;51.306;17.056;2023-03-01T01:38:46;48.50;26.50;
69224;PMS1003;56333;51.306;17.056;2023-03-01T01:40:16;45.30;25.70;
69224;PMS1003;56333;51.306;17.056;2023-03-01T01:41:45;46.50;26.40;
69224;PMS1003;56333;51.306;17.056;2023-03-01T01:43:21;44.80;26.30;
69224;PMS1003;56333;51.306;17.056;2023-03-01T01:46:58;46.80;26.50;
69224;PMS1003;56333;51.306;17.056;2023-03-01T01:48:37;45.20;26.10;
69224;PMS1003;56333;51.306;17.056;2023-03-01T01:50:17;47.70;25.30;
69224;PMS1003;56333;51.306;17.056;2023-03-01T01:51:48;43.80;24.90;
69224;PMS1003;56333;51.306;17.056;2023-03-01T01:53:21;43.00;24.00;
69224;PMS1003;56333;51.306;17.056;2023-03-01T01:54:55;44.00;26.90;
69224;PMS1003;56333;51.306;17.056;2023-03-01T01:56:28;37.60;24.50;
69224;PMS1003;56333;51.306;17.056;2023-03-01T01:58:01;34.20;20.30;
69224;PMS1003;56333;51.306;17.056;2023-03-01T01:59:32;36.50;22.10;
69224;PMS1003;56333;51.306;17.056;2023-03-01T02:01:03;38.60;22.90;
69224;PMS1003;56333;51.306;17.056;2023-03-01T02:02:33;39.30;22.20;
69224;PMS1003;56333;51.306;17.056;2023-03-01T02:04:03;39.10;22.50;
69224;PMS1003;56333;51.306;17.056;2023-03-01T02:05:39;38.70;22.60;
69224;PMS1003;56333;51.306;17.056;2023-03-01T02:07:17;37.80;21.40;
69224;PMS1003;56333;51.306;17.056;2023-03-01T02:08:49;37.90;23.90;
69224;PMS1003;56333;51.306;17.056;2023-03-01T02:10:21;41.50;24.20;
69224;PMS1003;56333;51.306;17.056;2023-03-01T02:11:51;41.20;24.40;
69224;PMS1003;56333;51.306;17.056;2023-03-01T02:13:20;39.50;22.80;
69224;PMS1003;56333;51.306;17.056;2023-03-01T02:14:49;38.90;22.90;
69224;PMS1003;56333;51.306;17.056;2023-03-01T02:16:18;39.10;23.40;
69224;PMS1003;56333;51.306;17.056;2023-03-01T02:17:48;38.20;22.50;
69224;PMS1003;56333;51.306;17.056;2023-03-01T02:19:31;38.70;21.90;
69224;PMS1003;56333;51.306;17.056;2023-03-01T02:21:25;35.50;19.90;
69224;PMS1003;56333;51.306;17.056;2023-03-01T02:23:01;31.90;20.20;
69224;PMS1003;56333;51.306;17.056;2023-03-01T02:24:38;34.40;19.40;
69224;PMS1003;56333;51.306;17.056;2023-03-01T02:26:17;30.10;18.50;
69224;PMS1003;56333;51.306;17.056;2023-03-01T02:27:54;30.40;18.00;
69224;PMS1003;56333;51.306;17.056;2023-03-01T02:29:25;31.10;18.90;
69224;PMS1003;56333;51.306;17.056;2023-03-01T02:30:55;32.10;19.20;
69224;PMS1003;56333;51.306;17.056;2023-03-01T02:32:42;35.00;19.90;
69224;PMS1003;56333;51.306;17.056;2023-03-01T02:34:13;33.90;20.50;
69224;PMS1003;56333;51.306;17.056;2023-03-01T02:35:44;34.50;20.50;
69224;PMS1003;56333;51.306;17.056;2023-03-01T02:37:15;33.00;19.00;
69224;PMS1003;56333;51.306;17.056;2023-03-01T02:38:53;33.70;19.20;
69224;PMS1003;56333;51.306;17.056;2023-03-01T02:40:25;34.50;19.90;
69224;PMS1003;56333;51.306;17.056;2023-03-01T02:41:56;34.10;19.30;
69224;PMS1003;56333;51.306;17.056;2023-03-01T02:43:29;34.60;19.20;
69224;PMS1003;56333;51.306;17.056;2023-03-01T02:44:59;38.60;20.90;
69224;PMS1003;56333;51.306;17.056;2023-03-01T02:46:28;32.30;19.50;
69224;PMS1003;56333;51.306;17.056;2023-03-01T02:47:58;35.10;19.90;
69224;PMS1003;56333;51.306;17.056;2023-03-01T02:49:30;36.00;20.40;
69224;PMS1003;56333;51.306;17.056;2023-03-01T02:51:09;41.00;22.40;
69224;PMS1003;56333;51.306;17.056;2023-03-01T02:52:47;43.40;24.20;
69224;PMS1003;56333;51.306;17.056;2023-03-01T02:54:27;40.90;22.80;
69224;PMS1003;56333;51.306;17.056;2023-03-01T02:55:59;37.10;21.10;
69224;PMS1003;56333;51.306;17.056;2023-03-01T02:57:30;33.70;19.70;
69224;PMS1003;56333;51.306;17.056;2023-03-01T02:59:00;35.10;20.80;
69224;PMS1003;56333;51.306;17.056;2023-03-01T03:00:35;33.80;19.60;
69224;PMS1003;56333;51.306;17.056;2023-03-01T03:02:20;33.30;19.70;
69224;PMS1003;56333;51.306;17.056;2023-03-01T03:04:05;34.70;20.70;
69224;PMS1003;56333;51.306;17.056;2023-03-01T03:05:36;36.80;20.50;
69224;PMS1003;56333;51.306;17.056;2023-03-01T03:07:05;35.10;20.40;
69224;PMS1003;56333;51.306;17.056;2023-03-01T03:08:34;34.10;20.10;
69224;PMS1003;56333;51.306;17.056;2023-03-01T03:10:06;35.90;19.80;
69224;PMS1003;56333;51.306;17.056;2023-03-01T03:11:37;36.50;20.00;
69224;PMS1003;56333;51.306;17.056;2023-03-01T03:13:09;35.20;21.20;
69224;PMS1003;56333;51.306;17.056;2023-03-01T03:14:40;34.10;19.90;
69224;PMS1003;56333;51.306;17.056;2023-03-01T03:16:10;36.80;20.90;
69224;PMS1003;56333;51.306;17.056;2023-03-01T03:17:40;35.80;20.60;
69224;PMS1003;56333;51.306;17.056;2023-03-01T03:19:10;36.80;21.10;
69224;PMS1003;56333;51.306;17.056;2023-03-01T03:20:40;33.90;20.60;
69224;PMS1003;56333;51.306;17.056;2023-03-01T03:22:10;36.40;21.00;
69224;PMS1003;56333;51.306;17.056;2023-03-01T03:23:39;37.70;21.30;
69224;PMS1003;56333;51.306;17.056;2023-03-01T03:25:09;36.20;20.40;
69224;PMS1003;56333;51.306;17.056;2023-03-01T03:26:38;33.80;19.10;
69224;PMS1003;56333;51.306;17.056;2023-03-01T03:28:08;31.20;18.90;
69224;PMS1003;56333;51.306;17.056;2023-03-01T03:29:37;32.10;18.90;
69224;PMS1003;56333;51.306;17.056;2023-03-01T03:31:06;31.50;18.90;
69224;PMS1003;56333;51.306;17.056;2023-03-01T03:32:36;31.30;19.00;
69224;PMS1003;56333;51.306;17.056;2023-03-01T03:34:05;31.60;19.20;
69224;PMS1003;56333;51.306;17.056;2023-03-01T03:35:38;35.50;20.70;
69224;PMS1003;56333;51.306;17.056;2023-03-01T03:37:09;33.50;19.80;
69224;PMS1003;56333;51.306;17.056;2023-03-01T03:38:57;33.80;21.10;
69224;PMS1003;56333;51.306;17.056;2023-03-01T03:40:28;35.60;20.60;
69224;PMS1003;56333;51.306;17.056;2023-03-01T03:41:59;32.70;19.10;
69224;PMS1003;56333;51.306;17.056;2023-03-01T03:43:30;35.80;20.70;
69224;PMS1003;56333;51.306;17.056;2023-03-01T03:45:00;35.50;20.40;
69224;PMS1003;56333;51.306;17.056;2023-03-01T03:46:29;36.50;20.50;
69224;PMS1003;56333;51.306;17.056;2023-03-01T03:47:58;34.70;20.40;
69224;PMS1003;56333;51.306;17.056;2023-03-01T03:49:27;35.70;20.40;
69224;PMS1003;56333;51.306;17.056;2023-03-01T03:50:57;38.10;21.50;
69224;PMS1003;56333;51.306;17.056;2023-03-01T03:52:27;37.70;21.40;
69224;PMS1003;56333;51.306;17.056;2023-03-01T03:53:55;41.70;21.70;
69224;PMS1003;56333;51.306;17.056;2023-03-01T03:55:24;41.20;22.70;
69224;PMS1003;56333;51.306;17.056;2023-03-01T03:56:56;40.00;22.50;
69224;PMS1003;56333;51.306;17.056;2023-03-01T03:58:26;34.10;19.70;
69224;PMS1003;56333;51.306;17.056;2023-03-01T03:59:56;33.10;18.80;
69224;PMS1003;56333;51.306;17.056;2023-03-01T04:01:24;32.60;19.20;
69224;PMS1003;56333;51.306;17.056;2023-03-01T04:02:53;30.80;18.40;
69224;PMS1003;56333;51.306;17.056;2023-03-01T04:04:22;34.00;18.70;
69224;PMS1003;56333;51.306;17.056;2023-03-01T04:05:52;31.00;19.00;
69224;PMS1003;56333;51.306;17.056;2023-03-01T04:07:24;33.30;18.90;
69224;PMS1003;56333;51.306;17.056;2023-03-01T04:08:53;34.50;19.80;
69224;PMS1003;56333;51.306;17.056;2023-03-01T04:10:25;35.00;20.50;
69224;PMS1003;56333;51.306;17.056;2023-03-01T04:11:55;33.70;20.00;
69224;PMS1003;56333;51.306;17.056;2023-03-01T04:13:24;39.00;21.90;
69224;PMS1003;56333;51.306;17.056;2023-03-01T04:14:54;36.10;21.20;
69224;PMS1003;56333;51.306;17.056;2023-03-01T04:16:22;40.60;23.10;
69224;PMS1003;56333;51.306;17.056;2023-03-01T04:17:52;40.50;23.10;
69224;PMS1003;56333;51.306;17.056;2023-03-01T04:19:22;39.80;22.10;
69224;PMS1003;56333;51.306;17.056;2023-03-01T04:20:52;35.80;21.30;
69224;PMS1003;56333;51.306;17.056;2023-03-01T04:22:22;37.30;21.40;
69224;PMS1003;56333;51.306;17.056;2023-03-01T04:23:54;38.00;21.30;
69224;PMS1003;56333;51.306;17.056;2023-03-01T04:25:24;38.00;19.90;
69224;PMS1003;56333;51.306;17.056;2023-03-01T04:26:53;35.20;20.40;
69224;PMS1003;56333;51.306;17.056;2023-03-01T04:28:24;36.90;21.80;
69224;PMS1003;56333;51.306;17.056;2023-03-01T04:29:54;36.20;19.80;
69224;PMS1003;56333;51.306;17.056;2023-03-01T04:31:23;34.30;19.00;
69224;PMS1003;56333;51.306;17.056;2023-03-01T04:32:52;31.60;18.70;
69224;PMS1003;56333;51.306;17.056;2023-03-01T04:34:20;33.90;18.70;
69224;PMS1003;56333;51.306;17.056;2023-03-01T04:35:52;34.50;19.40;
69224;PMS1003;56333;51.306;17.056;2023-03-01T04:37:23;36.30;19.90;
69224;PMS1003;56333;51.306;17.056;2023-03-01T04:38:52;36.50;20.80;
69224;PMS1003;56333;51.306;17.056;2023-03-01T04:40:22;37.30;21.30;
69224;PMS1003;56333;51.306;17.056;2023-03-01T04:41:51;37.70;21.60;
69224;PMS1003;56333;51.306;17.056;2023-03-01T04:43:19;37.60;20.40;
69224;PMS1003;56333;51.306;17.056;2023-03-01T04:44:48;42.00;21.50;
69224;PMS1003;56333;51.306;17.056;2023-03-01T04:46:20;35.10;20.70;
69224;PMS1003;56333;51.306;17.056;2023-03-01T04:49:20;36.20;22.30;
69224;PMS1003;56333;51.306;17.056;2023-03-01T04:50:49;38.90;21.30;
69224;PMS1003;56333;51.306;17.056;2023-03-01T04:52:18;35.70;20.80;
69224;PMS1003;56333;51.306;17.056;2023-03-01T04:53:48;38.50;21.60;
69224;PMS1003;56333;51.306;17.056;2023-03-01T04:55:17;39.30;21.40;
69224;PMS1003;56333;51.306;17.056;2023-03-01T04:56:47;39.20;22.70;
69224;PMS1003;56333;51.306;17.056;2023-03-01T04:58:16;39.30;21.20;
69224;PMS1003;56333;51.306;17.056;2023-03-01T04:59:46;39.10;21.40;
69224;PMS1003;56333;51.306;17.056;2023-03-01T05:01:19;40.50;20.90;
69224;PMS1003;56333;51.306;17.056;2023-03-01T05:02:50;36.70;21.10;
69224;PMS1003;56333;51.306;17.056;2023-03-01T05:04:20;38.30;20.60;
69224;PMS1003;56333;51.306;17.056;2023-03-01T05:05:51;35.10;21.30;
69224;PMS1003;56333;51.306;17.056;2023-03-01T05:07:21;35.80;21.30;
69224;PMS1003;56333;51.306;17.056;2023-03-01T05:08:50;38.70;21.60;
69224;PMS1003;56333;51.306;17.056;2023-03-01T05:10:19;38.90;22.30;
69224;PMS1003;56333;51.306;17.056;2023-03-01T05:11:49;41.60;23.60;
69224;PMS1003;56333;51.306;17.056;2023-03-01T05:13:19;40.60;23.40;
69224;PMS1003;56333;51.306;17.056;2023-03-01T05:14:49;41.80;24.10;
69224;PMS1003;56333;51.306;17.056;2023-03-01T05:16:17;41.80;24.80;
69224;PMS1003;56333;51.306;17.056;2023-03-01T05:17:45;44.00;24.90;
69224;PMS1003;56333;51.306;17.056;2023-03-01T05:19:16;43.80;23.50;
69224;PMS1003;56333;51.306;17.056;2023-03-01T05:20:48;42.60;25.30;
69224;PMS1003;56333;51.306;17.056;2023-03-01T05:22:18;42.80;24.70;
69224;PMS1003;56333;51.306;17.056;2023-03-01T05:23:46;47.30;25.10;
69224;PMS1003;56333;51.306;17.056;2023-03-01T05:25:16;47.00;23.60;
69224;PMS1003;56333;51.306;17.056;2023-03-01T05:26:45;44.40;24.50;
69224;PMS1003;56333;51.306;17.056;2023-03-01T05:28:14;44.10;23.60;
69224;PMS1003;56333;51.306;17.056;2023-03-01T05:29:43;42.00;23.50;
69224;PMS1003;56333;51.306;17.056;2023-03-01T05:31:12;42.90;22.70;
69224;PMS1003;56333;51.306;17.056;2023-03-01T05:32:43;39.50;21.70;
69224;PMS1003;56333;51.306;17.056;2023-03-01T05:34:13;38.20;21.20;
69224;PMS1003;56333;51.306;17.056;2023-03-01T05:35:43;38.70;21.30;
69224;PMS1003;56333;51.306;17.056;2023-03-01T05:37:14;37.10;21.10;
69224;PMS1003;56333;51.306;17.056;2023-03-01T05:38:43;36.70;21.10;
69224;PMS1003;56333;51.306;17.056;2023-03-01T05:40:16;40.00;22.70;
69224;PMS1003;56333;51.306;17.056;2023-03-01T05:41:45;40.20;23.30;
69224;PMS1003;56333;51.306;17.056;2023-03-01T05:43:16;41.30;24.00;
69224;PMS1003;56333;51.306;17.056;2023-03-01T05:44:45;40.90;24.10;
69224;PMS1003;56333;51.306;17.056;2023-03-01T05:46:15;40.40;23.50;
69224;PMS1003;56333;51.306;17.056;2023-03-01T05:47:46;40.30;22.90;
69224;PMS1003;56333;51.306;17.056;2023-03-01T05:49:15;40.90;23.70;
69224;PMS1003;56333;51.306;17.056;2023-03-01T05:50:45;39.40;23.70;
69224;PMS1003;56333;51.306;17.056;2023-03-01T05:52:17;42.20;24.60;
69224;PMS1003;56333;51.306;17.056;2023-03-01T05:53:47;43.70;24.00;
69224;PMS1003;56333;51.306;17.056;2023-03-01T05:55:17;44.60;25.60;
69224;PMS1003;56333;51.306;17.056;2023-03-01T05:56:47;43.30;25.20;
69224;PMS1003;56333;51.306;17.056;2023-03-01T05:58:18;45.60;25.70;
69224;PMS1003;56333;51.306;17.056;2023-03-01T05:59:48;47.90;26.90;
69224;PMS1003;56333;51.306;17.056;2023-03-01T06:01:17;44.80;26.00;
69224;PMS1003;56333;51.306;17.056;2023-03-01T06:02:46;47.10;26.20;
69224;PMS1003;56333;51.306;17.056;2023-03-01T06:04:18;46.10;25.40;
69224;PMS1003;56333;51.306;17.056;2023-03-01T06:05:47;41.80;24.00;
69224;PMS1003;56333;51.306;17.056;2023-03-01T06:07:16;39.50;23.00;
69224;PMS1003;56333;51.306;17.056;2023-03-01T06:08:46;35.10;21.70;
69224;PMS1003;56333;51.306;17.056;2023-03-01T06:10:16;41.50;22.80;
69224;PMS1003;56333;51.306;17.056;2023-03-01T06:11:46;42.00;24.00;
69224;PMS1003;56333;51.306;17.056;2023-03-01T06:13:15;41.60;23.90;
69224;PMS1003;56333;51.306;17.056;2023-03-01T06:14:44;40.80;23.50;
69224;PMS1003;56333;51.306;17.056;2023-03-01T06:16:14;42.60;23.90;
69224;PMS1003;56333;51.306;17.056;2023-03-01T06:17:45;42.30;24.00;
69224;PMS1003;56333;51.306;17.056;2023-03-01T06:19:16;42.90;24.20;
69224;PMS1003;56333;51.306;17.056;2023-03-01T06:20:52;46.20;25.70;
69224;PMS1003;56333;51.306;17.056;2023-03-01T06:22:21;46.10;25.70;
69224;PMS1003;56333;51.306;17.056;2023-03-01T06:23:50;51.20;26.30;
69224;PMS1003;56333;51.306;17.056;2023-03-01T06:25:22;58.20;33.10;
69224;PMS1003;56333;51.306;17.056;2023-03-01T06:26:54;53.50;31.30;
69224;PMS1003;56333;51.306;17.056;2023-03-01T06:28:25;48.60;26.20;
69224;PMS1003;56333;51.306;17.056;2023-03-01T06:29:55;44.30;25.50;
69224;PMS1003;56333;51.306;17.056;2023-03-01T06:31:25;45.30;24.90;
69224;PMS1003;56333;51.306;17.056;2023-03-01T06:32:54;44.10;25.30;
69224;PMS1003;56333;51.306;17.056;2023-03-01T06:34:28;41.60;24.30;
69224;PMS1003;56333;51.306;17.056;2023-03-01T06:35:58;42.70;24.20;
69224;PMS1003;56333;51.306;17.056;2023-03-01T06:37:27;44.00;24.30;
69224;PMS1003;56333;51.306;17.056;2023-03-01T06:38:56;45.00;25.20;
69224;PMS1003;56333;51.306;17.056;2023-03-01T06:40:25;44.80;24.80;
69224;PMS1003;56333;51.306;17.056;2023-03-01T06:41:54;48.70;26.40;
69224;PMS1003;56333;51.306;17.056;2023-03-01T06:43:23;47.50;26.20;
69224;PMS1003;56333;51.306;17.056;2023-03-01T06:44:53;54.90;29.00;
69224;PMS1003;56333;51.306;17.056;2023-03-01T06:46:22;55.20;29.20;
69224;PMS1003;56333;51.306;17.056;2023-03-01T06:47:52;48.50;25.90;
69224;PMS1003;56333;51.306;17.056;2023-03-01T06:49:26;46.00;26.20;
69224;PMS1003;56333;51.306;17.056;2023-03-01T06:50:59;45.90;25.90;
69224;PMS1003;56333;51.306;17.056;2023-03-01T06:52:29;46.60;26.20;
69224;PMS1003;56333;51.306;17.056;2023-03-01T06:53:59;49.20;26.00;
69224;PMS1003;56333;51.306;17.056;2023-03-01T06:55:28;47.60;24.20;
69224;PMS1003;56333;51.306;17.056;2023-03-01T06:56:58;40.20;23.00;
69224;PMS1003;56333;51.306;17.056;2023-03-01T06:58:27;37.20;22.30;
69224;PMS1003;56333;51.306;17.056;2023-03-01T06:59:56;39.90;22.50;
69224;PMS1003;56333;51.306;17.056;2023-03-01T07:01:26;40.40;22.40;
69224;PMS1003;56333;51.306;17.056;2023-03-01T07:02:56;40.00;22.50;
69224;PMS1003;56333;51.306;17.056;2023-03-01T07:04:29;43.40;23.70;
69224;PMS1003;56333;51.306;17.056;2023-03-01T07:05:59;49.20;26.50;
69224;PMS1003;56333;51.306;17.056;2023-03-01T07:07:29;52.30;30.40;
69224;PMS1003;56333;51.306;17.056;2023-03-01T07:08:59;44.60;25.00;
69224;PMS1003;56333;51.306;17.056;2023-03-01T07:10:29;47.40;26.90;
69224;PMS1003;56333;51.306;17.056;2023-03-01T07:12:00;44.00;23.90;
69224;PMS1003;56333;51.306;17.056;2023-03-01T07:13:30;45.50;24.70;
69224;PMS1003;56333;51.306;17.056;2023-03-01T07:15:01;40.80;22.10;
69224;PMS1003;56333;51.306;17.056;2023-03-01T07:16:32;40.10;22.30;
69224;PMS1003;56333;51.306;17.056;2023-03-01T07:18:01;38.40;21.50;
69224;PMS1003;56333;51.306;17.056;2023-03-01T07:19:31;40.50;22.30;
69224;PMS1003;56333;51.306;17.056;2023-03-01T07:21:05;41.80;22.20;
69224;PMS1003;56333;51.306;17.056;2023-03-01T07:22:38;41.30;22.20;
69224;PMS1003;56333;51.306;17.056;2023-03-01T07:24:10;43.70;23.40;
69224;PMS1003;56333;51.306;17.056;2023-03-01T07:25:41;44.00;23.60;
69224;PMS1003;56333;51.306;17.056;2023-03-01T07:27:11;45.30;24.00;
69224;PMS1003;56333;51.306;17.056;2023-03-01T07:28:42;48.20;24.40;
69224;PMS1003;56333;51.306;17.056;2023-03-01T07:30:15;43.20;22.80;
69224;PMS1003;56333;51.306;17.056;2023-03-01T07:31:47;45.30;23.00;
69224;PMS1003;56333;51.306;17.056;2023-03-01T07:33:17;41.20;21.80;
69224;PMS1003;56333;51.306;17.056;2023-03-01T07:34:46;37.60;20.20;
69224;PMS1003;56333;51.306;17.056;2023-03-01T07:36:15;36.30;18.70;
69224;PMS1003;56333;51.306;17.056;2023-03-01T07:37:44;37.40;20.20;
69224;PMS1003;56333;51.306;17.056;2023-03-01T07:39:14;36.90;19.70;
69224;PMS1003;56333;51.306;17.056;2023-03-01T07:40:43;37.30;20.30;
69224;PMS1003;56333;51.306;17.056;2023-03-01T07:42:13;37.40;19.20;
69224;PMS1003;56333;51.306;17.056;2023-03-01T07:43:42;36.70;18.70;
69224;PMS1003;56333;51.306;17.056;2023-03-01T07:45:12;33.00;18.60;
69224;PMS1003;56333;51.306;17.056;2023-03-01T07:46:41;35.60;19.40;
69224;PMS1003;56333;51.306;17.056;2023-03-01T07:48:10;36.60;19.20;
69224;PMS1003;56333;51.306;17.056;2023-03-01T07:49:40;33.70;17.60;
69224;PMS1003;56333;51.306;17.056;2023-03-01T07:51:09;31.60;18.00;
69224;PMS1003;56333;51.306;17.056;2023-03-01T07:52:39;33.40;18.40;
69224;PMS1003;56333;51.306;17.056;2023-03-01T07:54:08;32.90;17.60;
69224;PMS1003;56333;51.306;17.056;2023-03-01T07:55:37;34.10;18.30;
69224;PMS1003;56333;51.306;17.056;2023-03-01T07:57:06;34.40;18.40;
69224;PMS1003;56333;51.306;17.056;2023-03-01T07:58:40;37.20;18.70;
69224;PMS1003;56333;51.306;17.056;2023-03-01T08:00:13;34.60;18.60;
69224;PMS1003;56333;51.306;17.056;2023-03-01T08:01:42;36.00;19.50;
69224;PMS1003;56333;51.306;17.056;2023-03-01T08:03:11;34.60;18.70;
69224;PMS1003;56333;51.306;17.056;2023-03-01T08:04:40;37.40;20.20;
69224;PMS1003;56333;51.306;17.056;2023-03-01T08:06:11;34.90;20.00;
69224;PMS1003;56333;51.306;17.056;2023-03-01T08:07:42;35.30;18.70;
69224;PMS1003;56333;51.306;17.056;2023-03-01T08:09:11;34.60;18.30;
69224;PMS1003;56333;51.306;17.056;2023-03-01T08:10:40;31.80;18.30;
69224;PMS1003;56333;51.306;17.056;2023-03-01T08:12:09;35.50;18.30;
69224;PMS1003;56333;51.306;17.056;2023-03-01T08:13:39;36.20;19.30;
69224;PMS1003;56333;51.306;17.056;2023-03-01T08:15:11;33.50;18.70;
69224;PMS1003;56333;51.306;17.056;2023-03-01T08:16:40;31.50;18.20;
69224;PMS1003;56333;51.306;17.056;2023-03-01T08:18:09;32.50;17.40;
69224;PMS1003;56333;51.306;17.056;2023-03-01T08:19:38;32.00;17.50;
69224;PMS1003;56333;51.306;17.056;2023-03-01T08:21:11;30.80;17.10;
69224;PMS1003;56333;51.306;17.056;2023-03-01T08:22:40;32.30;17.50;
69224;PMS1003;56333;51.306;17.056;2023-03-01T08:24:10;35.40;18.70;
69224;PMS1003;56333;51.306;17.056;2023-03-01T08:25:39;33.50;19.30;
69224;PMS1003;56333;51.306;17.056;2023-03-01T08:27:08;32.80;18.90;
69224;PMS1003;56333;51.306;17.056;2023-03-01T08:28:39;32.60;17.80;
69224;PMS1003;56333;51.306;17.056;2023-03-01T08:30:12;34.80;18.60;
69224;PMS1003;56333;51.306;17.056;2023-03-01T08:31:42;31.30;17.90;
69224;PMS1003;56333;51.306;17.056;2023-03-01T08:33:11;35.30;19.20;
69224;PMS1003;56333;51.306;17.056;2023-03-01T08:34:40;76.40;38.60;
69224;PMS1003;56333;51.306;17.056;2023-03-01T08:36:09;71.50;36.60;
69224;PMS1003;56333;51.306;17.056;2023-03-01T08:37:39;71.00;35.90;
69224;PMS1003;56333;51.306;17.056;2023-03-01T08:39:10;69.70;35.20;
69224;PMS1003;56333;51.306;17.056;2023-03-01T08:40:40;64.30;33.10;
69224;PMS1003;56333;51.306;17.056;2023-03-01T08:42:09;59.50;29.80;
69224;PMS1003;56333;51.306;17.056;2023-03-01T08:43:39;55.10;29.50;
69224;PMS1003;56333;51.306;17.056;2023-03-01T08:45:11;61.20;30.70;
69224;PMS1003;56333;51.306;17.056;2023-03-01T08:46:45;65.70;31.40;
69224;PMS1003;56333;51.306;17.056;2023-03-01T08:48:15;60.20;31.20;
69224;PMS1003;56333;51.306;17.056;2023-03-01T08:49:45;63.10;32.50;
69224;PMS1003;56333;51.306;17.056;2023-03-01T08:51:15;62.50;32.20;
69224;PMS1003;56333;51.306;17.056;2023-03-01T08:52:46;67.20;33.10;
69224;PMS1003;56333;51.306;17.056;2023-03-01T08:54:17;60.80;31.80;
69224;PMS1003;56333;51.306;17.056;2023-03-01T08:55:47;61.10;31.10;
69224;PMS1003;56333;51.306;17.056;2023-03-01T08:57:16;59.60;31.20;
69224;PMS1003;56333;51.306;17.056;2023-03-01T08:58:48;58.60;31.20;
69224;PMS1003;56333;51.306;17.056;2023-03-01T09:00:27;65.50;33.70;
69224;PMS1003;56333;51.306;17.056;2023-03-01T09:01:56;61.00;31.60;
69224;PMS1003;56333;51.306;17.056;2023-03-01T09:03:25;58.00;31.70;